createdAt,value
2023-01-02T00:01:58.991Z,101528.75
2023-01-02T00:05:00.691Z,101517.63
2023-01-02T00:08:02.391Z,101511.25
2023-01-02T00:11:04.204Z,101506.88
2023-01-02T00:14:06.113Z,101517.91
2023-01-02T00:17:07.855Z,101509.03
2023-01-02T00:20:09.952Z,101506.22
2023-01-02T00:23:11.654Z,101503.78
2023-01-02T00:26:13.302Z,101508.41
2023-01-02T00:29:15.647Z,101507.75
2023-01-02T00:32:17.305Z,101506.72
2023-01-02T00:35:18.943Z,101515.59
2023-01-02T00:38:20.581Z,101511.41
2023-01-02T00:41:22.656Z,101499.66
2023-01-02T00:44:24.309Z,101509.75
2023-01-02T00:47:25.936Z,101502.75
2023-01-02T00:50:27.569Z,101502.31
2023-01-02T00:53:29.211Z,101490.09
2023-01-02T00:56:30.859Z,101491.59
2023-01-02T00:59:32.548Z,101492.03
2023-01-02T01:02:34.397Z,101496.06
2023-01-02T01:05:39.205Z,101498.66
2023-01-02T01:08:41.167Z,101491.59
2023-01-02T01:11:42.859Z,101489.34
2023-01-02T01:14:44.575Z,101492.94
2023-01-02T01:17:46.302Z,101486.50
2023-01-02T01:20:47.943Z,101481.44
2023-01-02T01:23:54.786Z,101482.22
2023-01-02T01:26:56.574Z,101485.47
2023-01-02T01:29:58.216Z,101494.69
2023-01-02T01:32:59.893Z,101490.19
2023-01-02T01:36:03.339Z,101483.69
2023-01-02T01:39:05.044Z,101491.28
2023-01-02T01:42:07.204Z,101483.44
2023-01-02T01:45:15.834Z,101479.25
2023-01-02T01:48:17.815Z,101479.12
2023-01-02T01:51:20.847Z,101475.00
2023-01-02T01:54:31.663Z,101466.09
2023-01-02T01:57:57.323Z,101464.84
2023-01-02T02:00:59.564Z,101470.81
2023-01-02T02:04:01.345Z,101475.00
2023-01-02T02:07:03.294Z,101475.00
2023-01-02T02:10:10.957Z,101474.50
2023-01-02T02:13:13.616Z,101469.34
2023-01-02T02:16:18.138Z,101464.84
2023-01-02T02:19:38.568Z,101464.97
2023-01-02T02:22:55.460Z,101457.31
2023-01-02T02:26:36.176Z,101460.47
2023-01-02T02:29:53.078Z,101452.81
2023-01-02T02:33:12.398Z,101451.53
2023-01-02T02:36:30.868Z,101457.34
2023-01-02T02:39:53.882Z,101450.72
2023-01-02T02:43:17.232Z,101445.06
2023-01-02T02:46:40.583Z,101438.19
2023-01-02T02:50:01.010Z,101438.47
2023-01-02T02:53:14.698Z,101430.06
2023-01-02T02:56:19.506Z,101432.78
2023-01-02T02:59:22.624Z,101431.44
2023-01-02T03:02:24.509Z,101432.53
2023-01-02T03:05:37.548Z,101428.56
2023-01-02T03:08:42.547Z,101422.09
2023-01-02T03:12:10.434Z,101419.50
2023-01-02T03:15:21.851Z,101419.91
2023-01-02T03:18:35.030Z,101423.56
2023-01-02T03:22:13.976Z,101412.53
2023-01-02T03:25:16.164Z,101405.34
2023-01-02T03:28:22.854Z,101401.09
2023-01-02T03:31:27.816Z,101407.34
2023-01-02T03:34:32.417Z,101412.72
2023-01-02T03:37:38.405Z,101410.22
2023-01-02T03:40:45.844Z,101415.53
2023-01-02T03:43:56.532Z,101415.75
2023-01-02T03:47:08.168Z,101413.72
2023-01-02T03:50:17.528Z,101416.44
2023-01-02T03:53:20.344Z,101422.59
2023-01-02T03:56:40.002Z,101410.84
2023-01-02T03:59:41.597Z,101416.37
2023-01-02T04:03:04.278Z,101416.78
2023-01-02T04:06:12.580Z,101424.53
2023-01-02T04:09:20.895Z,101427.00
2023-01-02T04:12:25.048Z,101425.84
2023-01-02T04:15:30.232Z,101417.75
2023-01-02T04:18:44.610Z,101427.31
2023-01-02T04:21:52.670Z,101427.25
2023-01-02T04:25:04.041Z,101426.84
2023-01-02T04:28:28.175Z,101433.87
2023-01-02T04:31:51.431Z,101429.81
2023-01-02T04:34:55.050Z,101437.28
2023-01-02T04:37:56.667Z,101440.56
2023-01-02T04:40:58.358Z,101441.09
2023-01-02T04:44:00.646Z,101447.06
2023-01-02T04:47:02.369Z,101447.84
2023-01-02T04:50:06.345Z,101438.59
2023-01-02T04:53:09.729Z,101437.13
2023-01-02T04:56:11.383Z,101428.25
2023-01-02T04:59:13.027Z,101435.91
2023-01-02T05:02:14.803Z,101436.28
2023-01-02T05:05:16.799Z,101435.50
2023-01-02T05:08:18.509Z,101436.50
2023-01-02T05:11:20.897Z,101435.12
2023-01-02T05:14:22.544Z,101431.31
2023-01-02T05:17:24.197Z,101440.19
2023-01-02T05:20:25.803Z,101437.00
2023-01-02T05:23:46.416Z,101429.44
2023-01-02T05:26:48.143Z,101434.78
2023-01-02T05:29:49.953Z,101450.66
2023-01-02T05:32:51.733Z,101448.31
2023-01-02T05:35:53.457Z,101446.06
2023-01-02T05:38:55.620Z,101442.00
2023-01-02T05:41:57.288Z,101450.59
2023-01-02T05:44:58.967Z,101447.34
2023-01-02T05:48:00.611Z,101453.97
2023-01-02T05:51:04.202Z,101443.00
2023-01-02T05:54:06.451Z,101437.75
2023-01-02T05:57:08.196Z,101440.00
2023-01-02T06:00:10.494Z,101441.25
2023-01-02T06:03:12.253Z,101442.28
2023-01-02T06:06:15.961Z,101429.47
2023-01-02T06:09:18.054Z,101434.75
2023-01-02T06:12:19.706Z,101432.72
2023-01-02T06:15:21.430Z,101440.59
2023-01-02T06:18:23.737Z,101446.31
2023-01-02T06:21:25.793Z,101445.75
2023-01-02T06:24:28.049Z,101456.03
2023-01-02T06:27:32.477Z,101455.47
2023-01-02T06:30:34.596Z,101444.91
2023-01-02T06:33:36.977Z,101447.50
2023-01-02T06:36:38.652Z,101440.34
2023-01-02T06:39:40.345Z,101439.72
2023-01-02T06:42:45.079Z,101442.72
2023-01-02T06:45:46.816Z,101446.84
2023-01-02T06:48:49.224Z,101440.53
2023-01-02T06:51:50.878Z,101443.13
2023-01-02T06:54:52.528Z,101441.97
2023-01-02T06:57:54.304Z,101440.25
2023-01-02T07:00:56.175Z,101445.25
2023-01-02T07:03:57.904Z,101449.78
2023-01-02T07:06:59.588Z,101455.94
2023-01-02T07:10:01.243Z,101454.03
2023-01-02T07:13:03.260Z,101457.94
2023-01-02T07:16:10.673Z,101459.06
2023-01-02T07:19:12.374Z,101465.66
2023-01-02T07:22:14.019Z,101464.50
2023-01-02T07:25:15.728Z,101461.81
2023-01-02T07:28:17.406Z,101466.50
2023-01-02T07:31:20.087Z,101473.34
2023-01-02T07:34:21.822Z,101464.66
2023-01-02T07:37:23.548Z,101463.44
2023-01-02T07:40:31.810Z,101467.25
2023-01-02T07:43:34.105Z,101470.00
2023-01-02T07:46:35.892Z,101468.94
2023-01-02T07:49:37.807Z,101461.81
2023-01-02T07:52:39.433Z,101464.88
2023-01-02T07:55:41.159Z,101458.56
2023-01-02T07:58:42.867Z,101469.75
2023-01-02T08:01:44.646Z,101472.78
2023-01-02T08:04:46.398Z,101473.28
2023-01-02T08:07:48.249Z,101470.06
2023-01-02T08:10:49.898Z,101474.50
2023-01-02T08:13:51.650Z,101476.44
2023-01-02T08:16:53.403Z,101473.63
2023-01-02T08:19:55.077Z,101480.78
2023-01-02T08:22:57.569Z,101484.16
2023-01-02T08:26:00.445Z,101484.63
2023-01-02T08:29:02.156Z,101489.44
2023-01-02T08:32:04.006Z,101481.56
2023-01-02T08:35:07.673Z,101477.31
2023-01-02T08:38:09.400Z,101473.03
2023-01-02T08:41:11.140Z,101481.53
2023-01-02T08:44:12.814Z,101486.00
2023-01-02T08:47:14.490Z,101497.84
2023-01-02T08:50:16.529Z,101493.38
2023-01-02T08:53:18.756Z,101499.66
2023-01-02T08:56:31.558Z,101497.00
2023-01-02T08:59:33.223Z,101501.34
2023-01-02T09:02:35.157Z,101499.91
2023-01-02T09:05:36.932Z,101495.34
2023-01-02T09:08:38.632Z,101493.63
2023-01-02T09:11:50.276Z,101503.12
2023-01-02T09:14:52.357Z,101498.16
2023-01-02T09:17:53.983Z,101492.97
2023-01-02T09:20:55.649Z,101490.59
2023-01-02T09:23:57.400Z,101490.50
2023-01-02T09:26:59.079Z,101492.19
2023-01-02T09:30:00.709Z,101485.22
2023-01-02T09:33:02.470Z,101481.34
2023-01-02T09:36:07.109Z,101472.72
2023-01-02T09:39:09.032Z,101480.47
2023-01-02T09:42:16.068Z,101466.84
2023-01-02T09:45:17.893Z,101465.97
2023-01-02T09:48:21.696Z,101461.81
2023-01-02T09:51:23.439Z,101464.19
2023-01-02T09:54:28.568Z,101449.53
2023-01-02T09:57:40.867Z,101444.03
2023-01-02T10:00:46.462Z,101435.75
2023-01-02T10:04:07.335Z,101434.00
2023-01-02T10:07:16.131Z,101421.59
2023-01-02T10:10:31.744Z,101426.16
2023-01-02T10:17:03.319Z,101421.41
2023-01-02T10:20:16.622Z,101420.37
2023-01-02T10:23:29.672Z,101408.31
2023-01-02T10:26:36.989Z,101404.03
2023-01-02T10:29:46.052Z,101398.19
2023-01-02T10:33:03.302Z,101398.31
2023-01-02T10:36:05.224Z,101391.28
2023-01-02T10:39:12.739Z,101392.25
2023-01-02T10:42:16.299Z,101380.53
2023-01-02T10:45:18.064Z,101368.78
2023-01-02T10:48:21.652Z,101382.37
2023-01-02T10:51:24.176Z,101379.91
2023-01-02T10:54:25.868Z,101366.91
2023-01-02T10:57:40.159Z,101360.62
2023-01-02T11:00:41.929Z,101369.66
2023-01-02T11:03:44.658Z,101367.62
2023-01-02T11:07:00.991Z,101371.22
2023-01-02T11:10:02.783Z,101361.06
2023-01-02T11:13:10.462Z,101353.56
2023-01-02T11:16:15.370Z,101348.69
2023-01-02T11:19:29.174Z,101346.41
2023-01-02T11:22:42.043Z,101340.31
2023-01-02T11:25:44.857Z,101338.37
2023-01-02T11:28:49.562Z,101329.19
2023-01-02T11:31:57.514Z,101322.13
2023-01-02T11:35:02.506Z,101326.19
2023-01-02T11:38:04.379Z,101310.16
2023-01-02T11:41:06.246Z,101307.75
2023-01-02T11:44:07.943Z,101297.03
2023-01-02T11:47:12.713Z,101299.09
2023-01-02T11:50:25.356Z,101295.13
2023-01-02T11:53:38.383Z,101298.25
2023-01-02T11:56:43.822Z,101296.50
2023-01-02T11:59:48.614Z,101291.94
2023-01-02T12:02:53.272Z,101282.72
2023-01-02T12:06:19.919Z,101281.84
2023-01-02T12:09:35.587Z,101268.28
2023-01-02T12:12:55.718Z,101276.59
2023-01-02T12:16:18.440Z,101265.25
2023-01-02T12:19:32.329Z,101266.78
2023-01-02T12:22:46.470Z,101270.28
2023-01-02T12:25:54.006Z,101264.47
2023-01-02T12:28:58.602Z,101261.94
2023-01-02T12:32:24.759Z,101264.81
2023-01-02T12:36:10.092Z,101259.41
2023-01-02T12:39:22.942Z,101260.41
2023-01-02T12:42:33.673Z,101257.00
2023-01-02T12:45:41.536Z,101248.06
2023-01-02T12:49:16.793Z,101243.28
2023-01-02T12:52:30.394Z,101244.72
2023-01-02T12:55:59.448Z,101234.00
2023-01-02T12:59:20.118Z,101235.72
2023-01-02T13:02:31.707Z,101238.13
2023-01-02T13:05:46.099Z,101225.91
2023-01-02T13:08:56.655Z,101236.91
2023-01-02T13:12:04.831Z,101234.03
2023-01-02T13:15:15.485Z,101225.09
2023-01-02T13:18:23.924Z,101234.03
2023-01-02T13:21:47.321Z,101232.97
2023-01-02T13:24:50.819Z,101224.22
2023-01-02T13:27:55.884Z,101216.63
2023-01-02T13:31:27.093Z,101221.44
2023-01-02T13:34:31.334Z,101224.25
2023-01-02T13:37:34.691Z,101219.03
2023-01-02T13:40:36.439Z,101232.69
2023-01-02T13:43:39.404Z,101234.19
2023-01-02T13:50:13.307Z,101225.69
2023-01-02T13:53:30.139Z,101219.09
2023-01-02T13:56:31.840Z,101220.91
2023-01-02T13:59:42.981Z,101222.38
2023-01-02T14:03:16.544Z,101227.81
2023-01-02T14:06:30.702Z,101236.19
2023-01-02T14:10:10.194Z,101221.72
2023-01-02T14:13:20.149Z,101218.50
2023-01-02T14:16:41.491Z,101227.69
2023-01-02T14:19:43.960Z,101236.78
2023-01-02T14:23:10.788Z,101238.69
2023-01-02T14:26:29.317Z,101234.75
2023-01-02T14:29:32.940Z,101231.13
2023-01-02T14:32:34.544Z,101226.31
2023-01-02T14:35:40.489Z,101233.09
2023-01-02T14:38:53.405Z,101237.53
2023-01-02T14:42:13.557Z,101233.91
2023-01-02T14:45:20.895Z,101234.47
2023-01-02T14:48:31.301Z,101221.44
2023-01-02T14:51:38.185Z,101229.31
2023-01-02T14:54:42.671Z,101226.69
2023-01-02T14:57:48.645Z,101225.78
2023-01-02T15:00:51.403Z,101226.09
2023-01-02T15:04:03.183Z,101227.59
2023-01-02T15:07:14.886Z,101220.34
2023-01-02T15:10:19.153Z,101220.25
2023-01-02T15:13:22.067Z,101225.25
2023-01-02T15:16:24.569Z,101221.13
2023-01-02T15:19:29.432Z,101221.47
2023-01-02T15:22:31.420Z,101210.25
2023-01-02T15:25:39.414Z,101211.16
2023-01-02T15:28:41.037Z,101216.78
2023-01-02T15:31:51.341Z,101214.16
2023-01-02T15:34:53.157Z,101211.41
2023-01-02T15:37:55.243Z,101214.88
2023-01-02T15:40:57.848Z,101210.22
2023-01-02T15:44:18.521Z,101209.00
2023-01-02T15:47:27.644Z,101215.84
2023-01-02T15:50:32.047Z,101212.06
2023-01-02T15:53:42.872Z,101210.53
2023-01-02T15:56:44.737Z,101208.84
2023-01-02T15:59:47.693Z,101216.75
2023-01-02T16:02:49.415Z,101211.56
2023-01-02T16:05:54.784Z,101206.66
2023-01-02T16:08:59.137Z,101219.78
2023-01-02T16:12:03.207Z,101212.97
2023-01-02T16:15:05.715Z,101215.84
2023-01-02T16:18:13.022Z,101208.00
2023-01-02T16:21:16.186Z,101207.09
2023-01-02T16:24:23.621Z,101204.84
2023-01-02T16:27:29.739Z,101215.50
2023-01-02T16:30:43.461Z,101218.81
2023-01-02T16:33:46.390Z,101217.81
2023-01-02T16:36:48.069Z,101218.09
2023-01-02T16:39:50.466Z,101215.41
2023-01-02T16:43:02.380Z,101215.78
2023-01-02T16:46:04.661Z,101214.09
2023-01-02T16:49:07.584Z,101218.28
2023-01-02T16:52:10.125Z,101218.81
2023-01-02T16:55:21.158Z,101222.28
2023-01-02T16:58:25.254Z,101220.97
2023-01-02T17:01:27.009Z,101223.22
2023-01-02T17:04:28.720Z,101223.28
2023-01-02T17:07:30.450Z,101225.50
2023-01-02T17:10:32.778Z,101217.56
2023-01-02T17:13:34.846Z,101220.56
2023-01-02T17:16:36.566Z,101216.16
2023-01-02T17:19:38.234Z,101227.69
2023-01-02T17:22:40.810Z,101225.88
2023-01-02T17:25:46.360Z,101227.44
2023-01-02T17:28:48.083Z,101232.06
2023-01-02T17:31:49.795Z,101228.22
2023-01-02T17:34:51.988Z,101233.47
2023-01-02T17:37:53.681Z,101225.81
2023-01-02T17:40:58.957Z,101231.44
2023-01-02T17:44:01.826Z,101239.84
2023-01-02T17:47:38.807Z,101240.22
2023-01-02T17:50:26.608Z,101237.75
2023-01-02T17:53:28.295Z,101243.75
2023-01-02T17:56:31.800Z,101252.72
2023-01-02T17:59:35.089Z,101248.06
2023-01-02T18:02:37.056Z,101246.72
2023-01-02T18:05:38.954Z,101242.59
2023-01-02T18:08:40.669Z,101252.41
2023-01-02T18:11:42.312Z,101244.88
2023-01-02T18:14:45.670Z,101235.81
2023-01-02T18:17:48.423Z,101245.44
2023-01-02T18:20:50.443Z,101243.31
2023-01-02T18:24:07.256Z,101246.34
2023-01-02T18:27:18.369Z,101244.88
2023-01-02T18:30:26.008Z,101244.06
2023-01-02T18:33:28.770Z,101241.47
2023-01-02T18:36:31.999Z,101241.34
2023-01-02T18:39:42.651Z,101240.03
2023-01-02T18:42:47.914Z,101239.91
2023-01-02T18:45:53.205Z,101238.53
2023-01-02T18:48:55.555Z,101238.06
2023-01-02T18:52:17.089Z,101228.84
2023-01-02T18:55:25.235Z,101236.81
2023-01-02T18:58:33.870Z,101232.22
2023-01-02T19:01:36.948Z,101242.94
2023-01-02T19:04:40.380Z,101233.31
2023-01-02T19:07:42.215Z,101235.44
2023-01-02T19:10:50.138Z,101228.56
2023-01-02T19:13:56.880Z,101236.31
2023-01-02T19:17:25.547Z,101236.00
2023-01-02T19:20:27.309Z,101235.34
2023-01-02T19:23:45.256Z,101231.78
2023-01-02T19:26:50.075Z,101228.84
2023-01-02T19:29:53.103Z,101232.28
2023-01-02T19:32:55.334Z,101229.16
2023-01-02T19:36:00.954Z,101240.75
2023-01-02T19:39:20.098Z,101235.28
2023-01-02T19:42:24.896Z,101239.09
2023-01-02T19:45:28.132Z,101228.78
2023-01-02T19:48:30.255Z,101231.34
2023-01-02T19:51:33.071Z,101224.63
2023-01-02T19:54:35.236Z,101227.13
2023-01-02T19:57:37.747Z,101235.28
2023-01-02T20:00:40.455Z,101236.19
2023-01-02T20:03:42.866Z,101237.88
2023-01-02T20:10:01.802Z,101237.59
2023-01-02T20:13:04.392Z,101228.75
2023-01-02T20:16:07.092Z,101231.44
2023-01-02T20:19:09.346Z,101230.91
2023-01-02T20:22:11.348Z,101238.31
2023-01-02T20:25:16.165Z,101231.81
2023-01-02T20:28:18.195Z,101245.31
2023-01-02T20:31:20.594Z,101237.44
2023-01-02T20:34:22.845Z,101234.44
2023-01-02T20:37:27.101Z,101235.66
2023-01-02T20:40:29.677Z,101235.47
2023-01-02T20:43:32.258Z,101241.72
2023-01-02T20:46:34.499Z,101239.16
2023-01-02T20:49:36.807Z,101233.63
2023-01-02T20:52:39.439Z,101236.44
2023-01-02T20:55:42.229Z,101234.00
2023-01-02T20:58:45.032Z,101231.97
2023-01-02T21:01:47.891Z,101234.16
2023-01-02T21:04:52.766Z,101231.81
2023-01-02T21:07:55.238Z,101233.28
2023-01-02T21:10:59.431Z,101229.25
2023-01-02T21:14:03.308Z,101233.28
2023-01-02T21:17:05.650Z,101234.41
2023-01-02T21:20:07.839Z,101244.16
2023-01-02T21:23:10.419Z,101255.59
2023-01-02T21:26:17.243Z,101248.72
2023-01-02T21:29:19.663Z,101255.13
2023-01-02T21:32:21.932Z,101259.06
2023-01-02T21:35:23.599Z,101253.63
2023-01-02T21:38:26.701Z,101253.31
2023-01-02T21:41:46.732Z,101251.97
2023-01-02T21:44:48.496Z,101253.87
2023-01-02T21:47:50.188Z,101260.97
2023-01-02T21:50:51.845Z,101257.63
2023-01-02T21:53:53.484Z,101259.88
2023-01-02T21:56:55.127Z,101266.38
2023-01-02T21:59:56.797Z,101258.44
2023-01-02T22:02:58.707Z,101261.50
2023-01-02T22:06:00.460Z,101259.78
2023-01-02T22:09:02.891Z,101242.84
2023-01-02T22:12:07.308Z,101257.09
2023-01-02T22:15:11.757Z,101259.94
2023-01-02T22:18:13.431Z,101254.53
2023-01-02T22:21:15.068Z,101258.47
2023-01-02T22:24:17.398Z,101262.69
2023-01-02T22:27:21.935Z,101258.13
2023-01-02T22:30:31.462Z,101259.25
2023-01-02T22:33:35.605Z,101257.56
2023-01-02T22:36:37.298Z,101254.53
2023-01-02T22:39:39.349Z,101261.47
2023-01-02T22:43:05.748Z,101265.28
2023-01-02T22:46:14.496Z,101265.62
2023-01-02T22:49:21.261Z,101267.56
2023-01-02T22:52:23.960Z,101258.78
2023-01-02T22:55:25.656Z,101263.41
2023-01-02T22:58:27.515Z,101256.00
2023-01-02T23:01:35.099Z,101262.28
2023-01-02T23:04:36.738Z,101257.00
2023-01-02T23:07:38.421Z,101251.75
2023-01-02T23:10:40.078Z,101254.84
2023-01-02T23:13:42.536Z,101254.75
2023-01-02T23:17:02.943Z,101257.56
2023-01-02T23:20:05.107Z,101253.53
2023-01-02T23:23:07.583Z,101253.28
2023-01-02T23:26:09.612Z,101254.09
2023-01-02T23:29:12.263Z,101260.59
2023-01-02T23:32:14.377Z,101270.22
2023-01-02T23:35:16.135Z,101266.31
2023-01-02T23:38:17.998Z,101268.41
2023-01-02T23:41:19.693Z,101261.16
2023-01-02T23:44:22.586Z,101273.84
2023-01-02T23:47:24.302Z,101267.22
2023-01-02T23:50:26.011Z,101270.00
2023-01-02T23:53:28.054Z,101272.81
2023-01-02T23:56:33.152Z,101270.56
2023-01-02T23:59:34.817Z,101264.72
